Nearby METAR Reports

 

CYFC - Fredericton Airp, New Brunswick
Distance from station: E 14km
Updated: Sat, 28-Nov-2020 6:00pm AST
Overcast
Overcast
 Wind from SSW
Wind: SSW 4 km/h
Temperature: 3°C
Dew Point: 3°C
Humidity: 100%
Barometer: 1010.8 hPa
Clouds: Overcast
Visibility: 14 km
Cloud details: Mostly cloudy 1463 m
Overcast 1981 m
2020/11/28 22:00 CYFC 282200Z AUTO 20002KT 9SM BKN048 OVC065 03/03 A2985 RMK SLP111
CYCX - Gagetown (can M, New Brunswick
Distance from station: E 22km
Updated: Sat, 28-Nov-2020 6:00pm AST
Overcast
Overcast
 Wind from S
Wind: S 4 km/h
Temperature: 3°C
Dew Point: 2°C
Humidity: 93%
Barometer: 1011.2 hPa
Clouds: Overcast
Visibility: 14 km
Cloud details: Few Clouds 1067 m
Mostly cloudy 1341 m
Overcast 1951 m
2020/11/28 22:00 CYCX 282200Z AUTO 19002KT 9SM FEW035 BKN044 OVC064 03/02 A2986 RMK SLP113
 
CYQM - Moncton Airport, New Brunswick
Distance from station: ENE 159km
Updated: Sat, 28-Nov-2020 6:00pm AST
Mostly cloudy
Mostly cloudy
 Wind from WNW
Wind: WNW 7 km/h
Temperature: 3°C
Wind Chill: 1°C
Dew Point: 3°C
Humidity: 100%
Barometer: 1010.5 hPa
Clouds: Mostly cloudy
Visibility: 24 km
Cloud details: Mostly cloudy 2225 m
2020/11/28 22:00 CYQM 282200Z 29004KT 15SM BKN073 03/03 A2984 RMK AC6 SLP108
CYSJ - Saint John, New Brunswick
Distance from station: SE 88km
Updated: Sat, 28-Nov-2020 6:00pm AST
Overcast
Overcast
 Wind from N
Wind: N 6 km/h
Temperature: 4°C
Dew Point: 3°C
Humidity: 93%
Barometer: 1011.2 hPa
Clouds: Overcast
Visibility: 24 km
Cloud details: Overcast 1890 m
2020/11/28 22:00 CYSJ 282200Z 01003KT 15SM OVC062 04/03 A2986 RMK SC8 SLP116
 
CWPE - Point Lepreau, New Brunswick
Distance from station: SSE 90km
Updated: Sat, 28-Nov-2020 6:00pm AST

 Wind from NNW
Wind: NNW 6 km/h
Temperature: 5°C
Dew Point: 3°C
Humidity: 87%
2020/11/28 22:00 CWPE 282200Z AUTO 33003KT 05/03 RMK AO1 SOG 01 3011 SLP113 T00530033
CYHZ - Halifax Intl Arp, Nova Scotia
Distance from station: ESE 273km
Updated: Sat, 28-Nov-2020 6:00pm AST
Mist, Overcast
Mist, Overcast
 Wind from N
Wind: N 20 km/h
Temperature: 6°C
Wind Chill: 2°C
Dew Point: 6°C
Humidity: 100%
Barometer: 1008.8 hPa
Summary: Mist
Clouds: Overcast
Visibility: 8 km
Cloud details: Mostly cloudy 91 m
Overcast 244 m
2020/11/28 22:00 CYHZ 282200Z 36011KT 5SM BR BKN003 OVC008 06/06 A2979 RMK SF6ST2 SLP094
 
CYZX - Greenwood (can M, Nova Scotia
Distance from station: SE 169km
Updated: Sat, 28-Nov-2020 6:00pm AST
Mostly cloudy
Mostly cloudy
 Wind from NNW
Wind: NNW 4 km/h
Temperature: 5°C
Dew Point: 5°C
Humidity: 100%
Barometer: 1010.8 hPa
Clouds: Mostly cloudy
Visibility: 24 km
Cloud details: Few Clouds 701 m
Mostly cloudy 2225 m
2020/11/28 22:00 CYZX 282200Z 33002KT 15SM FEW023 BKN073 05/05 A2985 RMK SC2AC5 SLP108
CYQI - Yarmouth Airport, Nova Scotia
Distance from station: SSE 230km
Updated: Sat, 28-Nov-2020 6:00pm AST
Mostly cloudy
Mostly cloudy
 Wind from N
Wind: N 9 km/h
Temperature: 5°C
Wind Chill: 3°C
Dew Point: 4°C
Humidity: 93%
Barometer: 1011.5 hPa
Clouds: Mostly cloudy
Visibility: 24 km
Cloud details: Mostly cloudy 1859 m
2020/11/28 22:00 CYQI 282200Z 35005KT 15SM BKN061 05/04 A2987 RMK SC6 SLP116
 
KHUL - Houlton, Maine, USA
Distance from station: WNW 90km
Updated: Sat, 28-Nov-2020 6:53pm AST
Overcast
Overcast
 Wind from calm
Wind: Calm
Temperature: 2°C
Dew Point: 1°C
Humidity: 93%
Barometer: 1010.2 hPa
Clouds: Overcast
Visibility: 16 km
Cloud details: Few Clouds 732 m
Overcast 1829 m
2020/11/28 22:53 KHUL 282253Z AUTO 00000KT 10SM FEW024 OVC060 02/01 A2983 RMK AO2 SLP107 T00220011
KPQI - Presque Isle, Maine, USA
Distance from station: NW 137km
Updated: Sat, 28-Nov-2020 6:52pm AST
Overcast
Overcast
 Wind from calm
Wind: Calm
Temperature: 1°C
Dew Point: 1°C
Humidity: 100%
Barometer: 1010.2 hPa
Clouds: Overcast
Visibility: 13 km
Cloud details: Few Clouds 457 m
Overcast 640 m
2020/11/28 22:52 KPQI 282252Z AUTO 00000KT 8SM FEW015 OVC021 01/01 A2983 RMK AO2 UPE06 PNO $
 
KCAR - Caribou, Maine, USA
Distance from station: NW 151km
Updated: Sat, 28-Nov-2020 6:35pm AST
Mist, Overcast
Mist, Overcast
 Wind from S
Wind: S 6 km/h
Temperature: 2°C
Dew Point: 0°C
Humidity: 87%
Barometer: 1009.5 hPa
Summary: Mist
Clouds: Overcast
Visibility: 2 km
Cloud details: Overcast 91 m
2020/11/28 22:35 KCAR 282235Z AUTO 19003KT 1 1/4SM BR OVC003 02/00 A2981 RMK AO2 RAB00E10 P0000 T00170000 $
KMLT - Millinocket, Maine, USA
Distance from station: W 157km
Updated: Sat, 28-Nov-2020 6:53pm AST
Overcast
Overcast
 Wind from calm
Wind: Calm
Temperature: 2°C
Dew Point: 1°C
Humidity: 93%
Barometer: 1011.5 hPa
Clouds: Overcast
Visibility: 14 km
Cloud details: Mostly cloudy 1128 m
Overcast 1981 m
2020/11/28 22:53 KMLT 282253Z AUTO 00000KT 9SM BKN037 OVC065 02/01 A2987 RMK AO2 SLP124 T00220011
 
KBGR - Bangor, Maine, USA
Distance from station: SW 203km
Updated: Sat, 28-Nov-2020 6:53pm AST
Overcast
Overcast
 Wind from calm
Wind: Calm
Temperature: 4°C
Dew Point: 3°C
Humidity: 93%
Barometer: 1012.2 hPa
Clouds: Overcast
Visibility: 16 km
Cloud details: Mostly cloudy 1676 m
Mostly cloudy 2286 m
Overcast 3048 m
2020/11/28 22:53 KBGR 282253Z 00000KT 10SM BKN055 BKN075 OVC100 04/03 A2989 RMK AO2 SLP121 BINOVC T00440028
KBHB - Bar Harbor, Maine, USA
Distance from station: SW 204km
Updated: Sat, 28-Nov-2020 9:56am AST
NOT Current
Mostly cloudy
Mostly cloudy
 Wind from W
Wind: W 6 km/h
Temperature: 4°C
Dew Point: 4°C
Humidity: 100%
Barometer: 1012.9 hPa
Clouds: Mostly cloudy
Visibility: 16 km
Cloud details: Mostly cloudy 2134 m
2020/11/28 13:56 KBHB 281356Z AUTO 26003KT 10SM BKN070 04/04 A2991 RMK AO2 SLP132 T00440039
 
CWVU - Brier Island(Aut, Nova Scotia
Distance from station: S 177km
Updated: Fri, 27-Nov-2020 8:00pm AST
NOT Current

 Wind from SSW
Wind: SSW 4 km/h
Temperature: 8°C
2020/11/28 00:00 CWVU 280000Z AUTO 20002KT 08/ RMK AO1 SLP141 T0083 50006
CXNP - Nappan (auto), Nova Scotia
Distance from station: E 191km
Updated: Sat, 28-Nov-2020 6:00pm AST

 Wind from N
Wind: N 6 km/h
Temperature: 4°C
Dew Point: 3°C
Humidity: 93%
2020/11/28 22:00 CXNP 282200Z AUTO 01003KT 04/03 RMK AO1 3007 SLP106 T00360033 50002
 
CXKT - Kentville (autob, Nova Scotia
Distance from station: ESE 193km
Updated: Sat, 28-Nov-2020 6:00pm AST

 Wind from NNW
Wind: NNW 6 km/h
Temperature: 5°C
Dew Point: 4°C
Humidity: 93%
2020/11/28 22:00 CXKT 282200Z AUTO 33003KT 05/04 RMK AO1 3012 SLP102 T00500037 50008
CWKG - Kejimkujik (au8), Nova Scotia
Distance from station: SE 197km
Updated: Sat, 28-Nov-2020 6:00pm AST

 Wind from NW
Wind: NW 4 km/h
Temperature: 3°C
Dew Point: 2°C
Humidity: 93%
2020/11/28 22:00 CWKG 282200Z AUTO 32002KT 03/02 RMK AO1 SLP106 T00250024 53010
 
KFVE - Frenchville, Maine, USA
Distance from station: NW 201km
Updated: Sat, 28-Nov-2020 6:53pm AST
Fog, Overcast
Fog, Overcast
 Wind from S
Wind: S 7 km/h
Temperature: 1°C
Wind Chill: -2°C
Dew Point: 1°C
Humidity: 100%
Barometer: 1008.8 hPa
Summary: Fog
Clouds: Overcast
Visibility: 0.4 km
Cloud details: Overcast 61 m
2020/11/28 22:53 KFVE 282253Z AUTO 18004KT 1/4SM FG VV002 01/01 A2979 RMK AO2 SLP096 T00110006
CZBF - Bathurst Arpt(Aw, New Brunswick
Distance from station: NNE 208km
Updated: Sat, 28-Nov-2020 6:00pm AST
Overcast
Overcast
 Wind from W
Wind: W 4 km/h
Temperature: 1°C
Dew Point: 0°C
Humidity: 93%
Barometer: 1010.2 hPa
Clouds: Overcast
Visibility: 14 km
Cloud details: Overcast 1829 m
2020/11/28 22:00 CZBF 282200Z AUTO 26002KT 9SM OVC060 01/00 A2983 RMK SLP112
 
CERM - Edmunston, New Brunswick
Distance from station: NW 213km
Updated: Sat, 28-Nov-2020 6:00pm AST

 Wind from SE
Wind: SE 4 km/h
Temperature: 1°C
Dew Point: 1°C
Humidity: 100%
2020/11/28 22:00 CERM 282200Z AUTO 13002KT 01/01 RMK AO1 SOG 14 2005 SLP100 T00120009
KGNR - Greenville, Maine, USA
Distance from station: W 226km
Updated: Sat, 28-Nov-2020 5:56pm AST

 Wind from NW
Wind: NW 17 km/h, Gust: 26 km/h
Temperature: 2°C
Wind Chill: -2°C
Dew Point: -1°C
Humidity: 81%
Barometer: 1009.5 hPa
2020/11/28 21:56 KGNR 282156Z AUTO 31009G14KT 02/M01 A2981 RMK AO1 SLP112 T00221006
 
CWSD - Summerside (auto, PEI
Distance from station: ENE 228km
Updated: Sat, 28-Nov-2020 6:00pm AST

 Wind from WNW
Wind: WNW 6 km/h
Temperature: 3°C
Dew Point: 3°C
Humidity: 100%
2020/11/28 22:00 CWSD 282200Z AUTO 29003KT 03/03 RMK AO1 SLP107 T00320027 53006
K40B - Clayton Lake, Maine, USA
Distance from station: WNW 233km
Updated: Sat, 28-Nov-2020 6:16pm AST

 Wind from calm
Wind: Calm
Temperature: 1°C
Barometer: 1009.5 hPa
2020/11/28 22:16 K40B 282216Z AUTO 00000KT 01/ A2981 RMK AO1 SLP113 T0008 52010 P0002
 
CZCR - Charlo Airport, New Brunswick
Distance from station: N 236km
Updated: Sat, 28-Nov-2020 6:00pm AST

 Wind from calm
Wind: Calm
Temperature: 1°C
Dew Point: 1°C
Humidity: 100%
2020/11/28 22:00 CZCR 282200Z AUTO 00000KT 01/01 RMK AO1 SLP102 T00110006 52004
CWNE - North Point (aut, Ontario
Distance from station: NE 246km
Updated: Sat, 28-Nov-2020 6:00pm AST

 Wind from NNW
Wind: NNW 15 km/h
Temperature: 4°C
Wind Chill: 1°C
Dew Point: 2°C
Humidity: 87%
2020/11/28 22:00 CWNE 282200Z AUTO 34008KT 04/02 RMK AO1 SLP100 T00360018 51007
 
CXLB - Lunenburg, Nova Scotia
Distance from station: SE 250km
Updated: Sat, 28-Nov-2020 6:00pm AST

 Wind from WNW
Wind: WNW 20 km/h
Temperature: 7°C
Wind Chill: 4°C
Dew Point: 7°C
Humidity: 100%
2020/11/28 22:00 CXLB 282200Z AUTO 30011KT 07/07 RMK AO1 SLP086 T00720070 53010
CZDB - Debert, Nova Scotia
Distance from station: E 255km
Updated: Sat, 28-Nov-2020 6:00pm AST

 Wind from N
Wind: N 7 km/h
Temperature: 5°C
Wind Chill: 3°C
Dew Point: 4°C
Humidity: 93%
2020/11/28 22:00 CZDB 282200Z AUTO 36004KT 05/04 RMK AO1 3012 SLP101 T00490038 50004
 
CWOC - New Carlisle1, Quebec
Distance from station: NNE 262km
Updated: Sat, 28-Nov-2020 6:00pm AST

 Wind from NNW
Wind: NNW 6 km/h
Temperature: 1°C
Dew Point: 0°C
Humidity: 93%
2020/11/28 22:00 CWOC 282200Z AUTO 34003KT 01/00 RMK AO1 SLP100 T00140000 51006
CWWE - Western Head (ma, Nova Scotia
Distance from station: SE 264km
Updated: Sat, 28-Nov-2020 6:00pm AST

 Wind from WNW
Wind: WNW 15 km/h
Temperature: 6°C
Wind Chill: 3°C
Dew Point: 5°C
Humidity: 93%
2020/11/28 22:00 CWWE 282200Z AUTO 30008KT 06/05 RMK AO1 SLP099 T00640050 53014
 
KRKD - Rockland/Knox, Maine, USA
Distance from station: SW 274km
Updated: Sat, 28-Nov-2020 5:56pm AST
Overcast
Overcast
 Wind from calm
Wind: Calm
Temperature: 5°C
Dew Point: 5°C
Humidity: 100%
Barometer: 1012.5 hPa
Clouds: Overcast
Visibility: 16 km
Cloud details: Partly cloudy 457 m
Overcast 2134 m
2020/11/28 21:56 KRKD 282156Z AUTO 00000KT 10SM SCT015 OVC070 05/05 A2990 RMK AO2 SLP124 T00500050
CAHR - Harrington Cda, Ontario
Distance from station: ENE 277km
Updated: Sat, 28-Nov-2020 6:00pm AST

 Wind from NW
Wind: NW 4 km/h
Temperature: 3°C
Dew Point: 3°C
Humidity: 100%
2020/11/28 22:00 CAHR 282200Z AUTO 32002KT 03/03 RMK AO1 3008 SLP101 T00330026 50007
 
KWVL - Waterville, Maine, USA
Distance from station: WSW 277km
Updated: Sat, 28-Nov-2020 6:45pm AST
Mostly cloudy
Mostly cloudy
 Wind from SW
Wind: SW 7 km/h
Temperature: 4°C
Wind Chill: 2°C
Dew Point: 4°C
Humidity: 100%
Barometer: 1011.5 hPa
Clouds: Mostly cloudy
Visibility: 11 km
Cloud details: Mostly cloudy 152 m
2020/11/28 22:45 KWVL 282245Z AUTO 22004KT 7SM BKN005 04/04 A2987 RMK AO2
CYYG - Charlottetown Ar, PEI
Distance from station: E 280km
Updated: Sat, 28-Nov-2020 6:00pm AST
Overcast
Overcast
 Wind from NNW
Wind: NNW 4 km/h
Temperature: 3°C
Dew Point: 3°C
Humidity: 100%
Barometer: 1010.2 hPa
Clouds: Overcast
Visibility: 24 km
Cloud details: Few Clouds 122 m
Partly cloudy 762 m
Overcast 1341 m
2020/11/28 22:00 CYYG 282200Z 34002KT 15SM FEW004 SCT025 OVC044 03/03 A2983 RMK SF1SC3SC4 SLP105
 
CXMI - Mcnabs Island, Nova Scotia
Distance from station: ESE 284km
Updated: Sat, 28-Nov-2020 6:00pm AST

 Wind from NNW
Wind: NNW 9 km/h
Temperature: 7°C
Wind Chill: 6°C
Dew Point: 7°C
Humidity: 100%
2020/11/28 22:00 CXMI 282200Z AUTO 34005KT 07/07 RMK AO1 SLP085 T00650068 53005
KAUG - Augusta, Maine, USA
Distance from station: SW 298km
Updated: Sat, 28-Nov-2020 6:53pm AST
Few Clouds
Few Clouds
 Wind from SSW
Wind: SSW 6 km/h
Temperature: 4°C
Dew Point: 4°C
Humidity: 100%
Barometer: 1012.2 hPa
Clouds: Few Clouds
Visibility: 13 km
Cloud details: Few Clouds 1494 m
2020/11/28 22:53 KAUG 282253Z AUTO 20003KT 8SM FEW049 04/04 A2989 RMK AO2 SLP126 T00440039
 
CWST - La Pocatiere, Quebec
Distance from station: NW 303km
Updated: Sat, 28-Nov-2020 6:00pm AST

 Wind from SW
Wind: SW 26 km/h, Gust: 35 km/h
Temperature: 3°C
Wind Chill: -2°C
Dew Point: 1°C
Humidity: 87%
2020/11/28 22:00 CWST 282200Z AUTO 23014G19KT 03/01 RMK AO1 SOG 01 1004 PK WND 23019/2155 SLP091 T00280005
CWNH - Riviere Du Loup, Quebec
Distance from station: NW 304km
Updated: Sat, 28-Nov-2020 6:00pm AST

 Wind from S
Wind: S 6 km/h
Temperature: 2°C
Dew Point: 1°C
Humidity: 93%
2020/11/28 22:00 CWNH 282200Z AUTO 18003KT 02/01 RMK AO1 SOG 01 0003 SLP094 T00160012
 
CWBK - Caribou Point(Ma, Nova Scotia
Distance from station: E 312km
Updated: Sat, 28-Nov-2020 6:00pm AST

 Wind from NNE
Wind: NNE 19 km/h
Temperature: 5°C
Wind Chill: 1°C
Dew Point: 4°C
Humidity: 93%
2020/11/28 22:00 CWBK 282200Z AUTO 02010KT 05/04 RMK AO1 1PAST HR 3006 SLP097 P0004 T00500044 50016
CWHV - Beauceville, Quebec
Distance from station: W 317km
Updated: Sat, 28-Nov-2020 6:00pm AST

 Wind from WSW
Wind: WSW 2 km/h
Temperature: 3°C
Dew Point: 1°C
Humidity: 87%
2020/11/28 22:00 CWHV 282200Z AUTO 24001KT 03/01 RMK AO1 SLP113 T00260008 52017
 
KIWI - Wiscasset, Maine, USA
Distance from station: SW 318km
Updated: Sat, 28-Nov-2020 6:53pm AST
Mist, Overcast
Mist, Overcast
 Wind from calm
Wind: Calm
Temperature: 4°C
Dew Point: 4°C
Humidity: 100%
Barometer: 1013.2 hPa
Summary: Mist
Clouds: Overcast
Visibility: 1.2 km
Cloud details: Overcast 30 m
2020/11/28 22:53 KIWI 282253Z AUTO 00000KT 3/4SM BR VV001 04/04 A2992 RMK AO2 SLP132 T00440044